Time;durP1;ratioP1;P1;durP2;ratioP2;P2;SDS_P1;SDS_P2;PMS_P1;PMS_P2;Temp;Humidity;BMP_temperature;BMP_pressure;BME280_temperature;BME280_humidity;BME280_pressure;Samples;Min_cycle;Max_cycle;Signal;HPM_P1;HPM_P2
2022/06/18 07:59:03;;;;;;;14.10;7.63;;;;;;;24.13;56.99;101556.34;5277297;27;1999171;-75
2022/06/18 08:01:36;;;;;;;10.73;8.15;;;;;;;24.16;56.48;101552.81;5320912;28;20110;-73
2022/06/18 08:04:07;;;;;;;34.20;30.83;;;;;;;24.21;56.62;101555.34;5321535;28;20046;-78
2022/06/18 08:06:38;;;;;;;11.30;7.80;;;;;;;24.36;57.29;101550.03;5314346;28;20024;-73
2022/06/18 08:09:10;;;;;;;15.80;7.25;;;;;;;24.36;56.47;101545.19;5300087;28;20060;-74
2022/06/18 08:11:42;;;;;;;15.82;8.25;;;;;;;24.47;57.01;101548.31;5300765;28;20103;-76
2022/06/18 08:14:14;;;;;;;11.60;7.20;;;;;;;24.56;56.37;101543.25;5306253;28;20554;-79
2022/06/18 08:16:46;;;;;;;13.93;8.27;;;;;;;24.61;56.11;101542.16;5312166;22;20044;-76
2022/06/18 08:19:17;;;;;;;13.77;8.52;;;;;;;24.77;55.85;101542.13;5312498;28;20356;-80
2022/06/18 08:21:49;;;;;;;14.52;8.05;;;;;;;24.78;55.46;101543.78;5322000;28;20102;-74
2022/06/18 08:24:22;;;;;;;12.20;7.03;;;;;;;24.86;55.63;101535.06;5321037;28;20352;-76
2022/06/18 08:26:56;;;;;;;10.05;7.15;;;;;;;24.92;54.96;101532.75;5315284;28;20036;-77
2022/06/18 08:29:27;;;;;;;12.10;9.38;;;;;;;25.01;54.44;101524.03;5301003;28;20535;-77
2022/06/18 08:31:59;;;;;;;14.27;9.50;;;;;;;25.10;54.67;101516.91;5299718;28;20103;-78
2022/06/18 08:34:30;;;;;;;13.48;7.80;;;;;;;25.08;54.18;101522.16;5300448;28;20028;-77
2022/06/18 08:37:04;;;;;;;21.83;7.90;;;;;;;25.13;54.42;101526.69;5300375;28;20028;-77
2022/06/18 08:39:38;;;;;;;12.15;6.72;;;;;;;25.32;54.46;101523.91;5299492;28;20476;-76
2022/06/18 08:42:16;;;;;;;12.20;6.60;;;;;;;25.31;53.40;101524.25;5298996;28;20020;-75
2022/06/18 08:45:21;;;;;;;10.18;6.88;;;;;;;25.41;53.32;101523.66;5298345;28;20054;-77
2022/06/18 08:48:14;;;;;;;13.10;6.65;;;;;;;25.44;52.13;101525.75;5283286;28;20040;-77
2022/06/18 08:50:56;;;;;;;9.50;6.40;;;;;;;25.57;52.98;101530.06;5299997;28;20020;-78
2022/06/18 08:54:05;;;;;;;15.48;6.32;;;;;;;25.68;52.34;101523.78;5299677;28;20028;-77
2022/06/18 08:56:45;;;;;;;12.38;6.60;;;;;;;25.79;52.21;101531.28;5299495;28;20107;-78
2022/06/18 08:59:44;;;;;;;11.65;6.85;;;;;;;25.69;51.69;101525.41;5299300;28;20423;-78
2022/06/18 09:02:34;;;;;;;12.07;6.72;;;;;;;25.79;52.35;101530.47;5299856;28;20036;-82
2022/06/18 09:05:22;;;;;;;8.48;5.45;;;;;;;25.86;51.76;101530.63;5291840;28;20123;-78
2022/06/18 09:08:21;;;;;;;11.48;5.63;;;;;;;25.93;51.01;101530.75;5299858;28;20034;-79
2022/06/18 09:11:18;;;;;;;13.80;5.85;;;;;;;25.98;51.12;101533.28;5285079;28;20040;-79
2022/06/18 09:13:57;;;;;;;8.63;5.70;;;;;;;26.11;51.84;101535.94;5284418;28;20024;-78
2022/06/18 09:16:39;;;;;;;15.63;7.03;;;;;;;26.14;52.51;101535.19;5285060;28;20123;-78
2022/06/18 09:19:17;;;;;;;12.15;6.72;;;;;;;26.22;52.54;101534.09;5285118;28;20069;-78
2022/06/18 09:21:53;;;;;;;9.98;5.85;;;;;;;26.25;52.53;101533.31;5284533;28;20088;-78
2022/06/18 09:24:33;;;;;;;8.70;6.45;;;;;;;26.34;51.90;101533.91;5285537;28;20116;-78
2022/06/18 09:27:11;;;;;;;12.18;6.80;;;;;;;26.66;51.88;101534.44;5284598;28;20402;-76
2022/06/18 09:30:06;;;;;;;9.65;6.30;;;;;;;26.58;51.43;101526.16;5285872;28;20157;-78
2022/06/18 09:32:46;;;;;;;18.60;7.60;;;;;;;26.57;51.51;101531.03;5285187;28;20024;-73
2022/06/18 09:35:36;;;;;;;10.55;7.07;;;;;;;26.72;51.91;101532.06;5284437;28;20029;-72
2022/06/18 09:38:16;;;;;;;12.27;7.07;;;;;;;26.52;51.80;101534.22;5284604;28;20029;-72
2022/06/18 09:40:55;;;;;;;17.55;15.68;;;;;;;26.66;51.88;101527.91;5284162;28;20392;-74
2022/06/18 09:44:07;;;;;;;14.07;8.05;;;;;;;26.74;52.06;101521.13;5285570;28;20062;-74
2022/06/18 09:46:49;;;;;;;12.07;7.95;;;;;;;26.85;52.18;101524.94;5285099;28;20052;-81
2022/06/18 09:49:20;;;;;;;16.23;9.95;;;;;;;26.66;51.84;101519.38;5263630;28;20025;-77
2022/06/18 09:52:10;;;;;;;17.58;10.40;;;;;;;26.70;51.90;101514.56;5276403;28;20039;-79
2022/06/18 09:54:47;;;;;;;16.25;10.70;;;;;;;26.62;52.22;101515.66;5264837;28;20468;-79
2022/06/18 09:57:22;;;;;;;14.05;8.20;;;;;;;26.64;52.39;101508.38;5277541;28;20107;-79
2022/06/18 10:00:08;;;;;;;10.30;7.38;;;;;;;26.72;51.70;101508.50;5284699;28;20160;-79
2022/06/18 10:03:08;;;;;;;11.18;7.20;;;;;;;26.89;51.74;101508.75;5284575;28;20163;-79
2022/06/18 10:08:50;;;;;;;9.55;7.10;;;;;;;27.05;50.17;101507.72;5246512;28;20032;-79
2022/06/18 10:11:24;;;;;;;10.95;6.45;;;;;;;27.16;50.35;101497.28;5284938;28;20037;-80
2022/06/18 10:14:03;;;;;;;13.27;7.65;;;;;;;27.26;50.60;101493.78;5285363;28;20029;-80
2022/06/18 10:17:07;;;;;;;14.88;10.45;;;;;;;27.25;50.66;101506.38;5283848;28;20045;-81
2022/06/18 10:19:55;;;;;;;11.40;6.53;;;;;;;27.38;50.47;101506.09;5284013;28;20039;-80
2022/06/18 10:23:00;;;;;;;11.93;6.82;;;;;;;27.43;50.30;101503.72;5266436;28;20044;-81
2022/06/18 10:25:58;;;;;;;26.02;16.02;;;;;;;27.52;50.08;101489.16;5272703;28;20127;-82
2022/06/18 10:28:38;;;;;;;13.77;9.45;;;;;;;27.46;50.36;101493.59;5270244;28;20090;-82
2022/06/18 10:31:21;;;;;;;16.63;7.57;;;;;;;27.58;49.88;101492.47;5283925;28;20078;-79
2022/06/18 10:34:00;;;;;;;15.88;7.85;;;;;;;27.44;49.31;101491.13;5284395;28;20467;-79
2022/06/18 10:36:54;;;;;;;16.70;7.50;;;;;;;27.73;50.08;101483.66;5283657;28;20059;-79
2022/06/18 10:39:53;;;;;;;10.90;6.65;;;;;;;27.80;49.50;101480.09;5284193;28;20029;-82
2022/06/18 10:42:41;;;;;;;10.30;7.00;;;;;;;27.79;50.00;101484.16;5284476;28;20128;-80
2022/06/18 10:48:26;;;;;;;16.77;7.75;;;;;;;28.07;48.77;101472.22;5268750;23;20056;-82
2022/06/18 10:51:24;;;;;;;14.95;8.27;;;;;;;27.92;48.99;101462.72;5283133;28;20119;-82
2022/06/18 10:54:49;;;;;;;14.32;7.55;;;;;;;27.91;49.17;101471.66;5283205;28;20055;-78
2022/06/18 11:01:00;;;;;;;15.13;7.43;;;;;;;28.33;48.91;101458.94;5146456;28;20039;-76
2022/06/18 11:03:33;;;;;;;13.85;7.60;;;;;;;28.38;47.34;101455.72;5169022;28;20438;-78
2022/06/18 11:06:13;;;;;;;11.00;6.80;;;;;;;28.39;47.33;101455.31;5253962;28;20055;-80
2022/06/18 11:08:57;;;;;;;11.20;6.75;;;;;;;28.44;47.26;101447.59;5283525;28;20043;-79
2022/06/18 11:11:32;;;;;;;13.50;9.07;;;;;;;28.32;47.00;101443.03;5283126;28;20025;-76
2022/06/18 11:14:18;;;;;;;13.57;7.57;;;;;;;28.38;47.04;101450.03;5282318;28;20166;-76
2022/06/18 11:16:55;;;;;;;13.98;7.15;;;;;;;28.56;46.90;101433.84;5281246;28;20472;-77
2022/06/18 11:19:33;;;;;;;15.60;6.53;;;;;;;28.58;47.20;101431.44;5280420;28;20111;-79
2022/06/18 11:22:16;;;;;;;13.20;6.97;;;;;;;28.76;46.06;101422.09;5283059;28;20467;-80
2022/06/18 11:25:02;;;;;;;16.98;6.65;;;;;;;28.82;45.25;101420.50;5283107;28;20112;-73
2022/06/18 11:27:36;;;;;;;14.88;6.47;;;;;;;28.69;44.78;101411.50;5282010;28;20443;-77
2022/06/18 11:30:21;;;;;;;12.57;6.93;;;;;;;28.77;44.83;101413.16;5262728;28;20361;-79
2022/06/18 11:32:52;;;;;;;15.45;6.68;;;;;;;28.89;43.66;101408.28;5275073;28;20539;-79
2022/06/18 11:35:31;;;;;;;11.55;6.28;;;;;;;28.88;45.30;101409.53;5281009;28;20091;-78
2022/06/18 11:38:15;;;;;;;11.27;7.25;;;;;;;29.09;44.24;101408.78;5282585;28;20468;-77
2022/06/18 11:40:53;;;;;;;10.35;6.50;;;;;;;29.04;42.55;101407.97;5280697;28;20025;-77
2022/06/18 11:43:27;;;;;;;12.38;6.95;;;;;;;29.30;42.19;101397.44;5274832;28;20099;-78
2022/06/18 11:46:05;;;;;;;12.10;5.30;;;;;;;29.33;41.54;101392.94;5262366;28;20365;-77
2022/06/18 11:48:59;;;;;;;12.50;6.00;;;;;;;29.26;42.00;101390.88;5272393;28;20075;-72
2022/06/18 11:51:41;;;;;;;13.25;6.05;;;;;;;29.30;41.53;101397.44;5280064;28;20028;-77
2022/06/18 11:54:27;;;;;;;11.93;6.20;;;;;;;29.47;41.57;101387.22;5267221;28;20026;-78
2022/06/18 11:57:13;;;;;;;11.18;6.07;;;;;;;29.42;42.03;101391.31;5281580;28;20186;-73
2022/06/18 11:59:54;;;;;;;14.85;6.88;;;;;;;29.72;41.71;101395.84;5282807;28;20111;-78
2022/06/18 12:02:50;;;;;;;14.95;10.60;;;;;;;29.84;40.41;101386.88;5281683;28;20043;-78
2022/06/18 12:05:48;;;;;;;12.43;6.10;;;;;;;29.83;40.09;101378.69;5262269;28;20076;-77
2022/06/18 12:08:22;;;;;;;11.68;6.32;;;;;;;30.02;40.10;101383.97;5276356;28;20028;-77
2022/06/18 12:11:06;;;;;;;10.48;5.38;;;;;;;30.01;39.76;101384.38;5282704;28;20024;-79
2022/06/18 12:13:46;;;;;;;14.98;5.32;;;;;;;30.03;39.50;101379.06;5281993;28;20025;-76
2022/06/18 12:16:26;;;;;;;14.90;6.82;;;;;;;30.25;39.72;101377.84;5281594;28;20070;-77
2022/06/18 12:19:09;;;;;;;13.48;5.95;;;;;;;30.13;40.57;101378.22;5281711;28;20257;-77
2022/06/18 12:21:49;;;;;;;12.13;6.32;;;;;;;30.18;40.37;101374.16;5282562;28;20048;-76
2022/06/18 12:25:19;;;;;;;10.75;5.93;;;;;;;30.47;42.07;101372.03;5280378;28;20086;-76
2022/06/18 12:28:17;;;;;;;12.88;6.90;;;;;;;30.39;42.29;101365.50;5180265;28;20094;-75
2022/06/18 12:30:55;;;;;;;15.55;6.60;;;;;;;30.37;42.78;101361.44;5194382;28;20044;-77
2022/06/18 12:33:38;;;;;;;14.82;6.47;;;;;;;30.41;42.25;101362.25;5265384;28;20464;-76
2022/06/18 12:36:28;;;;;;;11.88;6.43;;;;;;;30.27;42.33;101352.50;5281196;28;20021;-77
2022/06/18 12:39:17;;;;;;;15.13;7.30;;;;;;;30.47;42.60;101349.13;5277678;28;20060;-76
2022/06/18 12:42:04;;;;;;;10.68;6.22;;;;;;;30.30;42.03;101345.94;5268679;28;20033;-76
2022/06/18 12:44:50;;;;;;;14.38;6.93;;;;;;;30.47;41.72;101352.00;5281395;28;20482;-73
2022/06/18 12:47:54;;;;;;;16.85;7.63;;;;;;;30.39;42.18;101341.81;5284566;28;20344;-78
2022/06/18 12:50:58;;;;;;;17.20;7.53;;;;;;;30.59;42.98;101333.56;5284403;28;20033;-77
2022/06/18 12:53:48;;;;;;;13.18;7.28;;;;;;;30.54;42.54;101343.38;5283381;28;20016;-77
2022/06/18 12:56:28;;;;;;;11.25;8.13;;;;;;;30.43;42.28;101336.91;5267919;28;20029;-76
2022/06/18 12:59:08;;;;;;;15.07;7.43;;;;;;;30.45;42.22;101326.69;5284460;28;20032;-79
2022/06/18 13:01:53;;;;;;;11.40;7.45;;;;;;;30.62;42.55;101327.00;5285035;28;20509;-76
2022/06/18 13:04:48;;;;;;;13.30;6.97;;;;;;;30.71;42.46;101325.31;5285281;28;20033;-76
2022/06/18 13:07:35;;;;;;;18.90;6.93;;;;;;;30.67;41.96;101315.91;5284991;28;20086;-75
2022/06/18 13:10:25;;;;;;;15.75;7.55;;;;;;;30.74;41.95;101317.94;5278731;28;20616;-75
2022/06/18 13:13:11;;;;;;;12.18;6.28;;;;;;;30.86;41.06;101316.66;5283108;28;20039;-77
2022/06/18 13:15:52;;;;;;;10.40;5.53;;;;;;;31.07;40.93;101310.81;5285153;28;20070;-78
2022/06/18 13:18:50;;;;;;;15.93;7.90;;;;;;;31.36;41.12;101302.78;5285585;28;20384;-77
2022/06/18 13:21:21;;;;;;;14.48;6.78;;;;;;;31.42;41.50;101300.28;5284757;28;20492;-78
2022/06/18 13:30:29;;;;;;;85.40;78.43;;;;;;;31.11;41.18;101299.31;5269854;28;20045;-76
2022/06/18 13:33:25;;;;;;;11.32;6.47;;;;;;;31.09;41.59;101288.28;5269021;28;20028;-75
2022/06/18 13:36:06;;;;;;;15.63;6.78;;;;;;;31.19;41.36;101287.38;5276350;28;20360;-75
2022/06/18 13:39:06;;;;;;;18.80;6.93;;;;;;;31.40;41.87;101285.59;5280900;28;20090;-77
2022/06/18 13:41:50;;;;;;;19.17;8.02;;;;;;;31.41;41.38;101292.94;5274062;28;20503;-77
2022/06/18 13:44:43;;;;;;;17.87;7.83;;;;;;;31.17;41.65;101283.31;5268114;28;20063;-77
2022/06/18 13:47:22;;;;;;;16.27;6.10;;;;;;;31.20;41.60;101279.59;5277216;28;20663;-75
2022/06/18 13:50:07;;;;;;;14.73;7.22;;;;;;;31.11;41.35;101273.53;5284697;28;20086;-76
2022/06/18 13:52:43;;;;;;;15.02;8.32;;;;;;;31.24;41.35;101282.41;5284278;28;20025;-75
2022/06/18 13:55:30;;;;;;;28.33;21.88;;;;;;;31.47;41.47;101271.22;5283112;28;20025;-76
2022/06/18 13:58:02;;;;;;;10.90;6.32;;;;;;;31.58;40.66;101269.03;5284059;28;20099;-76
2022/06/18 14:00:38;;;;;;;12.32;7.32;;;;;;;31.38;39.66;101273.75;5283140;28;20040;-76
2022/06/18 14:03:18;;;;;;;19.13;6.88;;;;;;;31.64;40.65;101263.66;5282325;28;20112;-76
2022/06/18 14:06:02;;;;;;;11.75;7.28;;;;;;;31.64;39.29;101266.53;5284484;28;20456;-78
2022/06/18 14:09:01;;;;;;;15.38;6.78;;;;;;;31.68;39.71;101267.31;5279021;28;20025;-80
2022/06/18 14:11:40;;;;;;;13.13;6.28;;;;;;;31.56;39.98;101262.09;5273675;28;20020;-71
2022/06/18 14:14:24;;;;;;;11.45;5.97;;;;;;;31.61;39.99;101256.72;5283593;28;20032;-74
2022/06/18 14:17:11;;;;;;;10.02;6.80;;;;;;;31.66;39.69;101255.44;5274121;28;20058;-75
2022/06/18 14:20:04;;;;;;;17.55;7.38;;;;;;;31.68;39.27;101258.72;5284642;28;20459;-78
2022/06/18 14:22:39;;;;;;;14.45;6.55;;;;;;;31.57;39.00;101250.22;5280891;28;20029;-74
2022/06/18 14:25:18;;;;;;;16.80;6.65;;;;;;;31.90;39.82;101249.84;5284460;28;20024;-74
2022/06/18 14:27:50;;;;;;;12.80;6.43;;;;;;;31.90;39.54;101249.84;5284017;28;20044;-72
2022/06/18 14:30:34;;;;;;;11.15;6.28;;;;;;;31.70;41.40;101236.16;5283066;28;20048;-73
2022/06/18 14:33:17;;;;;;;10.43;6.43;;;;;;;31.97;41.93;101244.88;5270225;28;20020;-72
2022/06/18 14:36:19;;;;;;;29.77;26.30;;;;;;;32.10;40.97;101244.31;5283654;28;20543;-74
2022/06/18 14:38:57;;;;;;;12.50;7.70;;;;;;;31.81;41.65;101236.84;5276797;28;20037;-75
2022/06/18 14:41:35;;;;;;;15.15;6.75;;;;;;;31.87;41.63;101233.50;5284482;28;20055;-75
2022/06/18 14:44:18;;;;;;;9.98;6.10;;;;;;;32.05;42.15;101226.34;5282966;28;20035;-77
2022/06/18 14:47:07;;;;;;;10.73;7.25;;;;;;;31.94;42.49;101237.13;5280481;28;20115;-76
2022/06/18 14:50:12;;;;;;;15.15;7.13;;;;;;;31.85;42.68;101225.31;5284055;28;20028;-77
2022/06/18 14:53:09;;;;;;;14.00;7.63;;;;;;;31.75;42.89;101226.25;5267209;28;20108;-77
2022/06/18 14:56:20;;;;;;;12.70;7.18;;;;;;;31.89;42.90;101222.44;5283286;28;20045;-76
2022/06/18 14:59:07;;;;;;;12.73;7.68;;;;;;;31.79;43.25;101222.13;5252105;28;20028;-74
2022/06/18 15:01:57;;;;;;;17.63;7.75;;;;;;;31.75;43.44;101214.78;5275084;28;20311;-74
2022/06/18 15:04:36;;;;;;;12.38;7.78;;;;;;;31.65;43.30;101213.69;5282019;28;20047;-74
2022/06/18 15:07:08;;;;;;;12.57;7.63;;;;;;;31.26;43.58;101211.19;5282606;28;20107;-73
2022/06/18 15:09:48;;;;;;;15.65;7.68;;;;;;;31.36;43.60;101208.22;5276030;28;20036;-74
2022/06/18 15:12:20;;;;;;;12.73;7.50;;;;;;;31.31;43.85;101208.69;5281682;28;20051;-74
2022/06/18 15:14:55;;;;;;;12.50;7.07;;;;;;;31.35;42.93;101203.75;5283001;28;20020;-74
2022/06/18 15:17:32;;;;;;;13.55;7.10;;;;;;;31.38;43.45;101213.56;5282824;28;20501;-74
2022/06/18 15:20:38;;;;;;;10.90;7.90;;;;;;;31.28;43.44;101203.81;5281845;28;20025;-73
2022/06/18 15:23:19;;;;;;;11.65;7.22;;;;;;;31.19;43.75;101201.44;5280337;28;20069;-73
2022/06/18 15:25:51;;;;;;;13.20;6.90;;;;;;;30.99;43.00;101203.28;5282324;28;20438;-73
2022/06/18 15:28:22;;;;;;;19.73;6.90;;;;;;;31.22;43.03;101198.94;5282475;28;20032;-73
2022/06/18 15:31:37;;;;;;;12.05;6.50;;;;;;;31.30;42.57;101198.47;5282742;28;20371;-72
2022/06/18 15:34:29;;;;;;;15.77;6.18;;;;;;;31.22;43.29;101184.63;5213210;28;20049;-73
2022/06/18 15:37:06;;;;;;;14.02;6.35;;;;;;;31.10;43.48;101185.97;5272482;28;20108;-73
2022/06/18 15:39:54;;;;;;;13.20;7.32;;;;;;;31.11;42.91;101188.41;5281042;28;20031;-74
2022/06/18 15:42:39;;;;;;;12.68;7.15;;;;;;;31.10;42.79;101186.78;5280562;28;20035;-73
2022/06/18 15:45:33;;;;;;;10.23;6.68;;;;;;;31.10;42.78;101175.34;5268962;28;20017;-73
2022/06/18 15:48:15;;;;;;;12.02;6.13;;;;;;;31.06;43.43;101168.00;5281124;28;20044;-73
2022/06/18 16:02:17;;;;;;;11.82;6.57;;;;;;;31.00;43.48;101146.81;5842813;22;20045;-73
2022/06/18 16:11:41;;;;;;;13.73;6.78;;;;;;;31.32;42.60;101126.41;5236419;28;20041;-74
2022/06/18 16:14:12;;;;;;;12.48;6.53;;;;;;;31.26;42.97;101119.53;5240813;28;20029;-71
2022/06/18 16:16:50;;;;;;;9.27;6.60;;;;;;;31.18;42.54;101113.06;5239545;28;20037;-72
2022/06/18 16:19:22;;;;;;;11.65;6.53;;;;;;;31.20;42.35;101110.59;5241732;28;20032;-73
2022/06/18 16:21:55;;;;;;;13.80;6.75;;;;;;;31.03;42.76;101112.41;5650890;22;20058;-75
2022/06/18 16:24:37;;;;;;;13.23;7.00;;;;;;;30.94;43.21;101110.03;5244846;28;20021;-73
2022/06/18 16:27:24;;;;;;;11.30;6.38;;;;;;;31.09;43.09;101107.00;5244304;28;20029;-73
2022/06/18 16:30:21;;;;;;;14.55;7.32;;;;;;;31.03;43.29;101112.41;5243644;28;20060;-73
2022/06/18 16:33:10;;;;;;;14.00;6.57;;;;;;;30.91;43.49;101101.47;5228853;28;20504;-74
2022/06/18 16:41:14;;;;;;;14.05;5.55;;;;;;;30.91;45.58;101104.31;5530296;22;20049;-72
2022/06/18 16:43:51;;;;;;;10.25;5.75;;;;;;;30.82;46.08;101098.31;5222729;28;20054;-74
2022/06/18 16:46:25;;;;;;;12.00;5.80;;;;;;;30.70;45.94;101097.53;5223888;28;20034;-73
2022/06/18 16:48:59;;;;;;;11.57;5.30;;;;;;;30.80;45.93;101109.31;5223565;28;20037;-72
2022/06/18 16:51:44;;;;;;;8.07;5.13;;;;;;;30.85;45.74;101106.03;5212933;28;20070;-73
2022/06/18 16:54:38;;;;;;;9.55;5.47;;;;;;;30.80;46.59;101103.59;5219188;28;20053;-73
2022/06/18 16:57:20;;;;;;;10.13;5.38;;;;;;;30.60;46.67;101101.31;5221155;28;20461;-73
2022/06/18 16:59:57;;;;;;;7.53;4.50;;;;;;;30.70;46.82;101094.69;5226996;28;20029;-74
2022/06/18 17:02:30;;;;;;;11.63;4.88;;;;;;;30.47;47.50;101092.41;5220998;28;20076;-74
2022/06/18 17:05:02;;;;;;;8.32;4.72;;;;;;;30.41;47.71;101099.03;5222286;28;20045;-75
2022/06/18 17:07:34;;;;;;;7.78;4.90;;;;;;;30.39;47.45;101085.13;5223451;28;20029;-76
2022/06/18 17:10:28;;;;;;;9.88;5.05;;;;;;;30.43;47.50;101083.06;5222727;28;20033;-72
2022/06/18 17:13:00;;;;;;;9.52;5.18;;;;;;;30.25;47.28;101085.25;5221688;28;20029;-74
2022/06/18 17:15:31;;;;;;;7.18;4.65;;;;;;;30.10;48.01;101085.31;5213567;28;20022;-71
2022/06/18 17:18:02;;;;;;;6.43;4.13;;;;;;;30.20;47.65;101089.34;5221311;28;20033;-72
2022/06/18 17:20:34;;;;;;;9.88;4.82;;;;;;;29.95;48.39;101088.69;5223119;28;20030;-72
2022/06/18 17:23:06;;;;;;;6.25;3.50;;;;;;;30.05;48.40;101087.81;5222795;28;20025;-71
